createdAt,value
2018-10-05T00:02:07.109Z,101070.77
2018-10-05T00:04:35.653Z,101066.44
2018-10-05T00:07:04.428Z,101073.36
2018-10-05T00:09:32.977Z,101066.80
2018-10-05T00:12:01.504Z,101060.21
2018-10-05T00:14:30.205Z,101056.25
2018-10-05T00:16:58.849Z,101051.42
2018-10-05T00:19:27.424Z,101058.94
2018-10-05T00:21:56.076Z,101054.13
2018-10-05T00:24:24.628Z,101054.94
2018-10-05T00:26:53.220Z,101059.24
2018-10-05T00:29:21.980Z,101056.66
2018-10-05T00:31:50.486Z,101044.34
2018-10-05T00:34:19.052Z,101055.27
2018-10-05T00:36:47.713Z,101046.94
2018-10-05T00:39:16.316Z,101051.72
2018-10-05T00:41:44.913Z,101047.31
2018-10-05T00:44:13.556Z,101035.89
2018-10-05T00:46:42.141Z,101036.77
2018-10-05T00:49:10.813Z,101045.61
2018-10-05T00:51:39.640Z,101048.30
2018-10-05T00:54:08.201Z,101051.70
2018-10-05T00:56:36.711Z,101042.86
2018-10-05T00:59:05.553Z,101041.17
2018-10-05T01:01:34.088Z,101042.98
2018-10-05T01:04:02.696Z,101042.03
2018-10-05T01:06:31.758Z,101034.94
2018-10-05T01:09:00.285Z,101027.92
2018-10-05T01:11:28.929Z,101034.08
2018-10-05T01:13:57.628Z,101031.05
2018-10-05T01:16:26.393Z,101024.95
2018-10-05T01:18:55.073Z,101023.69
2018-10-05T01:21:23.833Z,101022.80
2018-10-05T01:23:52.464Z,101022.36
2018-10-05T01:26:21.112Z,101027.64
2018-10-05T01:28:49.828Z,101027.20
2018-10-05T01:31:18.394Z,101027.09
2018-10-05T01:33:46.973Z,101018.75
2018-10-05T01:36:15.569Z,101026.67
2018-10-05T01:38:44.182Z,101020.02
2018-10-05T01:41:12.704Z,101016.11
2018-10-05T01:43:41.392Z,101023.95
2018-10-05T01:46:09.993Z,101013.33
2018-10-05T01:48:38.553Z,101013.72
2018-10-05T01:51:07.168Z,101002.80
2018-10-05T01:53:35.721Z,100995.64
2018-10-05T01:56:04.325Z,100994.39
2018-10-05T01:58:35.024Z,100991.83
2018-10-05T02:01:04.299Z,100982.61
2018-10-05T02:03:32.874Z,100979.64
2018-10-05T02:06:01.524Z,100979.55
2018-10-05T02:08:30.073Z,100979.08
2018-10-05T02:10:58.682Z,100979.08
2018-10-05T02:13:27.512Z,100976.90
2018-10-05T02:15:56.037Z,100980.42
2018-10-05T02:18:24.788Z,100978.27
2018-10-05T02:20:53.513Z,100984.85
2018-10-05T02:23:22.097Z,100976.91
2018-10-05T02:25:50.696Z,100979.03
2018-10-05T02:28:19.273Z,100976.33
2018-10-05T02:30:47.813Z,100971.91
2018-10-05T02:33:16.349Z,100965.33
2018-10-05T02:35:44.964Z,100963.53
2018-10-05T02:38:13.505Z,100961.31
2018-10-05T02:40:42.021Z,100961.33
2018-10-05T02:43:10.781Z,100956.94
2018-10-05T02:45:39.337Z,100954.73
2018-10-05T02:48:07.940Z,100957.73
2018-10-05T02:50:36.892Z,100952.97
2018-10-05T02:53:05.637Z,100955.18
2018-10-05T02:55:34.195Z,100948.15
2018-10-05T02:58:02.833Z,100950.19
2018-10-05T03:00:42.709Z,100947.08
2018-10-05T03:03:11.288Z,100937.46
2018-10-05T03:05:39.881Z,100947.08
2018-10-05T03:08:08.477Z,100940.96
2018-10-05T03:10:37.096Z,100934.40
2018-10-05T03:13:05.648Z,100940.05
2018-10-05T03:15:34.238Z,100934.84
2018-10-05T03:18:03.033Z,100933.05
2018-10-05T03:20:31.656Z,100929.56
2018-10-05T03:23:00.243Z,100919.91
2018-10-05T03:25:28.875Z,100919.02
2018-10-05T03:27:57.428Z,100917.63
2018-10-05T03:30:25.945Z,100914.09
2018-10-05T03:32:54.568Z,100913.50
2018-10-05T03:35:23.122Z,100908.63
2018-10-05T03:37:51.642Z,100906.03
2018-10-05T03:40:20.669Z,100911.29
2018-10-05T03:42:49.239Z,100916.61
2018-10-05T03:45:17.809Z,100910.03
2018-10-05T03:47:46.655Z,100912.69
2018-10-05T03:50:15.353Z,100910.52
2018-10-05T03:52:43.968Z,100917.93
2018-10-05T03:55:12.761Z,100920.47
2018-10-05T03:57:41.320Z,100914.33
2018-10-05T04:00:09.938Z,100908.21
2018-10-05T04:02:38.964Z,100913.87
2018-10-05T04:05:07.721Z,100907.33
2018-10-05T04:07:36.396Z,100910.81
2018-10-05T04:10:05.227Z,100912.59
2018-10-05T04:12:33.832Z,100910.44
2018-10-05T04:15:02.357Z,100909.62
2018-10-05T04:17:30.938Z,100905.59
2018-10-05T04:19:59.601Z,100904.70
2018-10-05T04:22:30.949Z,100913.78
2018-10-05T04:24:59.596Z,100915.51
2018-10-05T04:27:28.345Z,100911.08
2018-10-05T04:29:57.580Z,100913.27
2018-10-05T04:32:26.719Z,100911.06
2018-10-05T04:34:55.301Z,100916.30
2018-10-05T04:37:24.025Z,100906.11
2018-10-05T04:39:52.557Z,100900.38
2018-10-05T04:42:21.292Z,100892.50
2018-10-05T04:44:50.324Z,100884.09
2018-10-05T04:47:18.853Z,100881.08
2018-10-05T04:49:47.527Z,100874.10
2018-10-05T04:52:16.516Z,100872.03
2018-10-05T04:54:45.130Z,100876.55
2018-10-05T04:57:13.774Z,100879.19
2018-10-05T04:59:42.493Z,100876.19
2018-10-05T05:02:11.080Z,100881.15
2018-10-05T05:04:39.641Z,100878.39
2018-10-05T05:07:08.780Z,100880.66
2018-10-05T05:09:37.292Z,100891.63
2018-10-05T05:12:05.921Z,100896.78
2018-10-05T05:14:34.576Z,100901.23
2018-10-05T05:17:03.129Z,100896.41
2018-10-05T05:19:31.779Z,100893.73
2018-10-05T05:22:00.573Z,100892.94
2018-10-05T05:24:29.264Z,100892.09
2018-10-05T05:26:57.805Z,100891.28
2018-10-05T05:29:26.489Z,100889.45
2018-10-05T05:31:55.054Z,100889.91
2018-10-05T05:34:23.605Z,100893.04
2018-10-05T05:36:52.484Z,100894.66
2018-10-05T05:39:21.171Z,100892.78
2018-10-05T05:41:49.961Z,100899.69
2018-10-05T05:44:18.905Z,100898.36
2018-10-05T05:46:47.534Z,100900.62
2018-10-05T05:49:16.245Z,100904.11
2018-10-05T05:51:45.063Z,100898.94
2018-10-05T05:54:13.810Z,100897.29
2018-10-05T05:56:42.433Z,100893.00
2018-10-05T05:59:11.465Z,100896.98
2018-10-05T06:01:40.033Z,100897.99
2018-10-05T06:04:08.600Z,100891.45
2018-10-05T06:06:37.296Z,100899.09
2018-10-05T06:09:08.522Z,100895.90
2018-10-05T06:11:37.243Z,100891.19
2018-10-05T06:14:06.140Z,100886.46
2018-10-05T06:16:34.798Z,100886.47
2018-10-05T06:19:03.616Z,100884.28
2018-10-05T06:21:32.404Z,100879.91
2018-10-05T06:24:01.089Z,100886.12
2018-10-05T06:26:29.810Z,100894.55
2018-10-05T06:28:58.505Z,100885.38
2018-10-05T06:31:27.025Z,100884.63
2018-10-05T06:33:55.809Z,100886.38
2018-10-05T06:36:24.444Z,100893.02
2018-10-05T06:38:53.028Z,100894.78
2018-10-05T06:41:21.887Z,100903.56
2018-10-05T06:43:50.603Z,100898.36
2018-10-05T06:46:19.444Z,100901.03
2018-10-05T06:48:48.312Z,100896.63
2018-10-05T06:51:16.993Z,100894.90
2018-10-05T06:53:45.658Z,100897.08
2018-10-05T06:56:14.404Z,100899.75
2018-10-05T06:58:42.944Z,100904.13
2018-10-05T07:01:11.780Z,100908.53
2018-10-05T07:03:40.494Z,100911.22
2018-10-05T07:06:09.292Z,100905.50
2018-10-05T07:08:37.856Z,100900.67
2018-10-05T07:11:06.758Z,100894.92
2018-10-05T07:13:35.344Z,100900.17
2018-10-05T07:16:03.889Z,100904.57
2018-10-05T07:18:32.570Z,100896.20
2018-10-05T07:21:01.153Z,100896.62
2018-10-05T07:23:29.713Z,100895.22
2018-10-05T07:25:58.832Z,100897.80
2018-10-05T07:28:27.599Z,100899.93
2018-10-05T07:30:56.038Z,100887.16
2018-10-05T07:33:24.649Z,100890.22
2018-10-05T07:35:53.284Z,100882.61
2018-10-05T07:38:21.840Z,100879.47
2018-10-05T07:40:50.428Z,100876.68
2018-10-05T07:43:19.013Z,100880.76
2018-10-05T07:45:47.648Z,100874.08
2018-10-05T07:48:16.353Z,100879.81
2018-10-05T07:50:44.953Z,100878.84
2018-10-05T07:53:13.501Z,100883.56
2018-10-05T07:55:42.244Z,100882.67
2018-10-05T07:58:11.040Z,100873.63
2018-10-05T08:00:39.638Z,100877.91
2018-10-05T08:03:08.340Z,100868.10
2018-10-05T08:05:36.957Z,100867.63
2018-10-05T08:08:05.512Z,100864.10
2018-10-05T08:10:34.275Z,100870.45
2018-10-05T08:13:02.852Z,100862.06
2018-10-05T08:15:31.508Z,100865.05
2018-10-05T08:18:00.225Z,100861.73
2018-10-05T08:20:29.197Z,100853.39
2018-10-05T08:22:57.765Z,100858.80
2018-10-05T08:25:26.621Z,100857.73
2018-10-05T08:27:55.206Z,100853.30
2018-10-05T08:30:23.870Z,100852.39
2018-10-05T08:32:52.497Z,100852.91
2018-10-05T08:35:21.089Z,100858.56
2018-10-05T08:37:49.726Z,100858.52
2018-10-05T08:40:18.492Z,100853.27
2018-10-05T08:42:47.480Z,100846.11
2018-10-05T08:45:16.129Z,100846.34
2018-10-05T08:47:44.905Z,100841.38
2018-10-05T08:50:13.489Z,100837.41
2018-10-05T08:52:42.038Z,100839.97
2018-10-05T08:55:10.817Z,100827.41
2018-10-05T08:57:39.354Z,100830.11
2018-10-05T09:00:09.345Z,100826.67
2018-10-05T09:02:38.130Z,100823.50
2018-10-05T09:05:06.720Z,100815.98
2018-10-05T09:07:35.252Z,100805.94
2018-10-05T09:10:04.128Z,100798.39
2018-10-05T09:12:32.844Z,100797.34
2018-10-05T09:15:01.484Z,100789.95
2018-10-05T09:17:30.071Z,100785.81
2018-10-05T09:19:59.113Z,100778.16
2018-10-05T09:22:27.719Z,100781.55
2018-10-05T09:24:56.638Z,100778.49
2018-10-05T09:27:25.241Z,100775.19
2018-10-05T09:29:53.768Z,100773.92
2018-10-05T09:32:22.447Z,100763.41
2018-10-05T09:34:51.076Z,100760.11
2018-10-05T09:37:19.768Z,100755.41
2018-10-05T09:39:48.752Z,100750.98
2018-10-05T09:42:17.300Z,100741.09
2018-10-05T09:44:45.923Z,100736.22
2018-10-05T09:47:14.592Z,100726.41
2018-10-05T09:49:43.125Z,100719.41
2018-10-05T09:52:11.759Z,100715.45
2018-10-05T09:54:40.716Z,100714.13
2018-10-05T09:57:09.289Z,100714.13
2018-10-05T09:59:37.959Z,100717.13
2018-10-05T10:02:11.964Z,100706.51
2018-10-05T10:04:40.489Z,100707.16
2018-10-05T10:07:09.086Z,100694.28
2018-10-05T10:09:37.657Z,100695.29
2018-10-05T10:12:06.249Z,100694.36
2018-10-05T10:14:34.844Z,100682.47
2018-10-05T10:17:03.581Z,100684.41
2018-10-05T10:19:32.190Z,100687.83
2018-10-05T10:22:00.736Z,100685.41
2018-10-05T10:24:29.633Z,100677.61
2018-10-05T10:26:58.192Z,100676.09
2018-10-05T10:29:26.782Z,100671.70
2018-10-05T10:31:55.498Z,100674.84
2018-10-05T10:34:24.114Z,100669.48
2018-10-05T10:36:52.889Z,100658.55
2018-10-05T10:39:21.668Z,100654.86
2018-10-05T10:41:50.341Z,100649.35
2018-10-05T10:44:19.045Z,100651.64
2018-10-05T10:46:47.868Z,100648.80
2018-10-05T10:49:16.440Z,100652.62
2018-10-05T10:51:45.040Z,100650.25
2018-10-05T10:54:13.906Z,100637.41
2018-10-05T10:56:42.541Z,100624.36
2018-10-05T10:59:11.112Z,100625.47
2018-10-05T11:01:39.785Z,100614.03
2018-10-05T11:04:08.477Z,100620.80
2018-10-05T11:06:37.138Z,100617.56
2018-10-05T11:09:07.646Z,100603.33
2018-10-05T11:11:36.609Z,100602.30
2018-10-05T11:14:05.376Z,100592.67
2018-10-05T11:16:34.333Z,100591.77
2018-10-05T11:19:02.951Z,100580.31
2018-10-05T11:21:31.561Z,100582.39
2018-10-05T11:24:00.296Z,100577.05
2018-10-05T11:26:47.241Z,100578.78
2018-10-05T11:29:16.125Z,100564.70
2018-10-05T11:31:44.973Z,100562.30
2018-10-05T11:34:13.599Z,100562.94
2018-10-05T11:36:42.684Z,100563.83
2018-10-05T11:39:11.285Z,100559.40
2018-10-05T11:41:39.933Z,100554.86
2018-10-05T11:44:08.657Z,100542.07
2018-10-05T11:46:37.300Z,100551.41
2018-10-05T11:49:06.357Z,100542.73
2018-10-05T11:51:35.260Z,100542.78
2018-10-05T11:54:03.920Z,100546.90
2018-10-05T11:56:32.441Z,100532.92
2018-10-05T11:59:01.456Z,100529.56
2018-10-05T12:01:30.124Z,100518.21
2018-10-05T12:03:58.742Z,100513.50
2018-10-05T12:06:27.316Z,100513.20
2018-10-05T12:08:55.997Z,100507.20
2018-10-05T12:11:24.613Z,100499.46
2018-10-05T12:13:53.234Z,100494.28
2018-10-05T12:16:21.845Z,100491.49
2018-10-05T12:18:50.590Z,100488.08
2018-10-05T12:21:19.304Z,100484.03
2018-10-05T12:23:47.844Z,100479.39
2018-10-05T12:26:16.481Z,100477.95
2018-10-05T12:28:45.305Z,100473.23
2018-10-05T12:31:13.984Z,100471.77
2018-10-05T12:33:42.669Z,100467.06
2018-10-05T12:36:11.204Z,100466.01
2018-10-05T12:38:39.751Z,100463.81
2018-10-05T12:41:08.356Z,100454.58
2018-10-05T12:43:37.104Z,100448.48
2018-10-05T12:46:05.757Z,100457.73
2018-10-05T12:48:34.276Z,100451.38
2018-10-05T12:51:03.088Z,100447.13
2018-10-05T12:53:31.960Z,100448.00
2018-10-05T12:56:01.057Z,100444.94
2018-10-05T12:58:29.796Z,100444.96
2018-10-05T13:00:58.352Z,100440.05
2018-10-05T13:03:26.946Z,100432.24
2018-10-05T13:05:55.714Z,100437.16
2018-10-05T13:08:24.340Z,100429.47
2018-10-05T13:10:52.880Z,100422.31
2018-10-05T13:13:21.502Z,100424.23
2018-10-05T13:15:50.117Z,100421.91
2018-10-05T13:18:18.776Z,100415.89
2018-10-05T13:20:47.796Z,100418.72
2018-10-05T13:23:16.450Z,100408.52
2018-10-05T13:25:45.128Z,100398.97
2018-10-05T13:28:13.865Z,100399.25
2018-10-05T13:30:42.380Z,100400.29
2018-10-05T13:33:11.069Z,100400.39
2018-10-05T13:35:39.857Z,100394.61
2018-10-05T13:38:08.401Z,100387.82
2018-10-05T13:40:37.057Z,100392.94
2018-10-05T13:43:06.072Z,100387.33
2018-10-05T13:45:34.632Z,100384.45
2018-10-05T13:48:03.229Z,100381.16
2018-10-05T13:50:32.061Z,100381.94
2018-10-05T13:53:00.604Z,100372.47
2018-10-05T13:55:29.416Z,100373.23
2018-10-05T13:57:58.146Z,100363.45
2018-10-05T14:00:26.726Z,100359.94
2018-10-05T14:02:55.301Z,100346.95
2018-10-05T14:05:24.149Z,100345.41
2018-10-05T14:07:53.166Z,100345.31
2018-10-05T14:10:21.787Z,100344.36
2018-10-05T14:12:50.544Z,100346.22
2018-10-05T14:15:19.432Z,100342.08
2018-10-05T14:17:48.001Z,100334.57
2018-10-05T14:20:16.758Z,100325.16
2018-10-05T14:22:45.392Z,100327.88
2018-10-05T14:25:13.956Z,100326.55
2018-10-05T14:27:42.889Z,100330.19
2018-10-05T14:30:11.603Z,100320.89
2018-10-05T14:32:40.204Z,100322.53
2018-10-05T14:35:08.880Z,100314.63
2018-10-05T14:37:37.456Z,100313.06
2018-10-05T14:40:06.115Z,100316.06
2018-10-05T14:42:34.860Z,100319.34
2018-10-05T14:45:03.400Z,100309.95
2018-10-05T14:47:31.988Z,100301.63
2018-10-05T14:50:00.565Z,100302.11
2018-10-05T14:52:29.160Z,100302.32
2018-10-05T14:54:57.873Z,100302.80
2018-10-05T14:57:26.519Z,100296.05
2018-10-05T14:59:55.053Z,100297.08
2018-10-05T15:02:23.654Z,100302.33
2018-10-05T15:04:52.388Z,100299.74
2018-10-05T15:07:20.956Z,100299.41
2018-10-05T15:09:49.549Z,100300.27
2018-10-05T15:12:18.602Z,100300.34
2018-10-05T15:14:47.238Z,100297.64
2018-10-05T15:17:16.011Z,100295.98
2018-10-05T15:19:44.869Z,100290.17
2018-10-05T15:22:13.424Z,100290.28
2018-10-05T15:24:41.964Z,100285.67
2018-10-05T15:27:11.199Z,100282.56
2018-10-05T15:29:39.893Z,100286.49
2018-10-05T15:32:08.554Z,100281.05
2018-10-05T15:34:37.294Z,100279.96
2018-10-05T15:37:06.085Z,100264.52
2018-10-05T15:39:34.757Z,100264.13
2018-10-05T15:42:03.396Z,100258.80
2018-10-05T15:44:32.068Z,100257.37
2018-10-05T15:47:08.508Z,100257.10
2018-10-05T15:49:37.845Z,100252.90
2018-10-05T15:52:06.664Z,100246.26
2018-10-05T15:54:35.356Z,100241.08
2018-10-05T15:57:04.488Z,100238.09
2018-10-05T15:59:34.073Z,100241.08
2018-10-05T16:02:02.905Z,100243.38
2018-10-05T16:04:31.997Z,100245.48
2018-10-05T16:07:00.585Z,100246.50
2018-10-05T16:09:29.420Z,100246.87
2018-10-05T16:11:58.188Z,100242.29
2018-10-05T16:14:27.611Z,100240.29
2018-10-05T16:16:56.345Z,100235.70
2018-10-05T16:19:24.996Z,100231.66
2018-10-05T16:21:53.605Z,100230.64
2018-10-05T16:24:41.367Z,100226.59
2018-10-05T16:27:10.860Z,100226.13
2018-10-05T16:29:39.610Z,100227.59
2018-10-05T16:32:09.421Z,100231.58
2018-10-05T16:34:38.222Z,100230.92
2018-10-05T16:37:06.992Z,100229.89
2018-10-05T16:39:36.125Z,100233.10
2018-10-05T16:42:04.952Z,100238.05
2018-10-05T16:44:33.602Z,100232.63
2018-10-05T16:47:02.744Z,100220.02
2018-10-05T16:49:31.385Z,100216.63
2018-10-05T16:52:00.014Z,100213.94
2018-10-05T16:54:28.749Z,100210.95
2018-10-05T16:56:57.368Z,100212.31
2018-10-05T16:59:25.991Z,100210.04
2018-10-05T17:01:54.644Z,100209.41
2018-10-05T17:04:23.286Z,100208.28
2018-10-05T17:06:51.836Z,100210.50
2018-10-05T17:09:20.405Z,100214.94
2018-10-05T17:11:48.916Z,100205.95
2018-10-05T17:14:17.500Z,100200.44
2018-10-05T17:16:46.217Z,100197.91
2018-10-05T17:19:14.846Z,100206.89
2018-10-05T17:21:43.441Z,100212.73
2018-10-05T17:24:12.045Z,100217.63
2018-10-05T17:26:40.656Z,100216.55
2018-10-05T17:29:09.289Z,100215.69
2018-10-05T17:31:37.984Z,100223.48
2018-10-05T17:34:06.674Z,100211.97
2018-10-05T17:36:35.345Z,100220.05
2018-10-05T17:39:06.048Z,100219.09
2018-10-05T17:41:34.696Z,100213.51
2018-10-05T17:44:03.268Z,100211.30
2018-10-05T17:46:32.057Z,100212.64
2018-10-05T17:49:00.749Z,100207.50
2018-10-05T17:51:29.369Z,100200.95
2018-10-05T17:53:58.048Z,100200.83
2018-10-05T17:56:26.648Z,100200.02
2018-10-05T17:58:55.169Z,100198.86
2018-10-05T18:01:23.988Z,100198.45
2018-10-05T18:03:52.540Z,100197.77
2018-10-05T18:06:21.148Z,100197.75
2018-10-05T18:08:49.818Z,100198.69
2018-10-05T18:11:18.445Z,100197.86
2018-10-05T18:13:47.057Z,100199.27
2018-10-05T18:16:15.885Z,100194.30
2018-10-05T18:18:44.548Z,100194.11
2018-10-05T18:21:13.161Z,100189.22
2018-10-05T18:23:41.783Z,100194.48
2018-10-05T18:26:10.407Z,100196.58
2018-10-05T18:28:39.030Z,100190.17
2018-10-05T18:31:07.624Z,100192.44
2018-10-05T18:33:36.292Z,100195.68
2018-10-05T18:36:04.930Z,100199.83
2018-10-05T18:38:33.644Z,100195.38
2018-10-05T18:41:02.177Z,100192.42
2018-10-05T18:43:30.861Z,100192.23
2018-10-05T18:45:59.549Z,100206.05
2018-10-05T18:48:28.180Z,100198.70
2018-10-05T18:50:56.735Z,100201.53
2018-10-05T18:53:25.892Z,100199.30
2018-10-05T18:55:54.492Z,100200.69
2018-10-05T18:58:23.088Z,100201.91
2018-10-05T19:00:51.740Z,100200.83
2018-10-05T19:03:20.420Z,100200.84
2018-10-05T19:05:48.993Z,100190.80
2018-10-05T19:08:17.545Z,100198.19
2018-10-05T19:10:46.192Z,100197.31
2018-10-05T19:13:14.786Z,100191.23
2018-10-05T19:15:43.517Z,100202.24
2018-10-05T19:18:12.062Z,100199.91
2018-10-05T19:20:40.737Z,100198.83
2018-10-05T19:23:09.412Z,100206.77
2018-10-05T19:25:37.964Z,100203.69
2018-10-05T19:28:06.580Z,100197.12
2018-10-05T19:30:35.306Z,100190.73
2018-10-05T19:33:03.925Z,100198.39
2018-10-05T19:35:32.574Z,100193.84
2018-10-05T19:38:01.173Z,100191.53
2018-10-05T19:40:29.776Z,100194.57
2018-10-05T19:42:58.356Z,100194.22
2018-10-05T19:45:27.253Z,100192.65
2018-10-05T19:47:55.882Z,100192.20
2018-10-05T19:50:24.457Z,100191.28
2018-10-05T19:52:53.211Z,100195.13
2018-10-05T19:55:21.779Z,100194.56
2018-10-05T19:57:50.288Z,100196.08
2018-10-05T20:00:18.953Z,100202.97
2018-10-05T20:02:47.537Z,100200.41
2018-10-05T20:05:16.068Z,100195.45
2018-10-05T20:07:44.680Z,100197.23
2018-10-05T20:10:13.309Z,100190.64
2018-10-05T20:12:41.901Z,100193.24
2018-10-05T20:15:10.559Z,100193.94
2018-10-05T20:17:39.169Z,100199.08
2018-10-05T20:20:07.828Z,100193.53
2018-10-05T20:22:36.436Z,100193.23
2018-10-05T20:25:05.058Z,100202.33
2018-10-05T20:27:33.698Z,100196.11
2018-10-05T20:30:02.429Z,100198.92
2018-10-05T20:32:31.022Z,100189.99
2018-10-05T20:34:59.550Z,100194.85
2018-10-05T20:37:28.433Z,100198.19
2018-10-05T20:39:56.820Z,100197.06
2018-10-05T20:42:25.380Z,100202.08
2018-10-05T20:44:54.320Z,100197.84
2018-10-05T20:47:22.888Z,100199.56
2018-10-05T20:49:51.398Z,100194.05
2018-10-05T20:52:19.980Z,100201.30
2018-10-05T20:54:48.616Z,100199.37
2018-10-05T20:57:17.180Z,100201.41
2018-10-05T20:59:45.860Z,100195.28
2018-10-05T21:02:14.356Z,100195.88
2018-10-05T21:04:43.001Z,100193.08
2018-10-05T21:07:11.563Z,100191.95
2018-10-05T21:09:40.152Z,100192.47
2018-10-05T21:12:08.716Z,100195.88
2018-10-05T21:14:37.533Z,100195.14
2018-10-05T21:17:06.441Z,100188.67
2018-10-05T21:19:35.056Z,100182.85
2018-10-05T21:22:03.899Z,100191.02
2018-10-05T21:24:33.007Z,100185.75
2018-10-05T21:27:01.521Z,100191.40
2018-10-05T21:29:30.045Z,100195.32
2018-10-05T21:31:58.740Z,100192.86
2018-10-05T21:34:27.248Z,100192.69
2018-10-05T21:36:55.857Z,100194.19
2018-10-05T21:39:24.362Z,100187.69
2018-10-05T21:41:52.888Z,100189.37
2018-10-05T21:44:21.523Z,100188.33
2018-10-05T21:46:50.075Z,100194.00
2018-10-05T21:49:18.680Z,100193.36
2018-10-05T21:51:47.456Z,100186.77
2018-10-05T21:54:16.077Z,100190.95
2018-10-05T21:56:44.572Z,100186.70
2018-10-05T21:59:13.200Z,100188.44
2018-10-05T22:01:41.776Z,100183.88
2018-10-05T22:04:10.332Z,100186.94
2018-10-05T22:06:38.876Z,100179.52
2018-10-05T22:09:10.153Z,100187.70
2018-10-05T22:11:38.677Z,100189.31
2018-10-05T22:14:07.665Z,100192.20
2018-10-05T22:16:36.155Z,100186.28
2018-10-05T22:19:04.976Z,100181.77
2018-10-05T22:21:33.460Z,100182.65
2018-10-05T22:24:02.114Z,100178.33
2018-10-05T22:26:30.704Z,100178.91
2018-10-05T22:28:59.192Z,100175.56
2018-10-05T22:31:28.133Z,100171.80
2018-10-05T22:33:56.972Z,100168.44
2018-10-05T22:36:25.489Z,100171.70
2018-10-05T22:38:53.992Z,100171.34
2018-10-05T22:41:22.728Z,100168.56
2018-10-05T22:43:51.248Z,100169.06
2018-10-05T22:46:20.232Z,100161.17
2018-10-05T22:48:49.128Z,100158.34
2018-10-05T22:51:17.664Z,100155.59
2018-10-05T22:53:46.248Z,100163.13
2018-10-05T22:56:15.024Z,100161.59
2018-10-05T22:58:43.546Z,100159.44
2018-10-05T23:01:12.064Z,100165.08
2018-10-05T23:03:40.756Z,100164.62
2018-10-05T23:06:09.304Z,100156.87
2018-10-05T23:08:37.844Z,100155.17
2018-10-05T23:11:06.580Z,100162.33
2018-10-05T23:13:35.384Z,100165.77
2018-10-05T23:16:03.969Z,100165.56
2018-10-05T23:18:32.691Z,100164.25
2018-10-05T23:21:01.185Z,100164.78
2018-10-05T23:23:29.684Z,100162.20
2018-10-05T23:25:58.303Z,100162.28
2018-10-05T23:28:26.924Z,100163.77
2018-10-05T23:30:55.430Z,100156.27
2018-10-05T23:33:24.185Z,100159.91
2018-10-05T23:35:52.685Z,100158.87
2018-10-05T23:38:21.208Z,100160.02
2018-10-05T23:40:49.731Z,100158.92
2018-10-05T23:43:18.288Z,100155.86
2018-10-05T23:45:46.828Z,100151.50
2018-10-05T23:48:15.465Z,100145.97
2018-10-05T23:50:44.016Z,100145.15
2018-10-05T23:53:12.584Z,100143.83
2018-10-05T23:55:41.248Z,100152.75
2018-10-05T23:58:09.864Z,100160.13
